Terminal Aerodrome Forecast
Issued by NWS

Home | Current Version | Previous Version | Text Only | Print | Product List | Glossary On
Versions: 1 2 3 4 5 6 7 8 9 10 11 12 13 14 15 16 17 18 19 20
931
FTUS45 KGJT 221347 AAA
TAFVEL
TAF AMD
KVEL 221347Z 2214/2312 VRB03KT P6SM -SHRA BKN030 OVC045
      TEMPO 2214/2216 -SHRA BKN025
     FM221600 17005KT P6SM VCSH BKN060 OVC100
     FM221900 25008KT P6SM VCTS SCT060CB BKN100
     FM230200 29006KT P6SM VCSH OVC100=

USA.gov is the U.S. government's official web portal to all federal, state and local government web resources and services.